Time;durP1;ratioP1;P1;durP2;ratioP2;P2;SDS_P1;SDS_P2;PMS_P1;PMS_P2;Temp;Humidity;BMP_temperature;BMP_pressure;BME280_temperature;BME280_humidity;BME280_pressure;Samples;Min_cycle;Max_cycle;Signal;HPM_P1;HPM_P2
2022/03/08 00:00:32;;;;;;;3.08;2.67;;;;;;;10.13;45.48;99412.86;1782609;80;21081;-65
2022/03/08 00:02:59;;;;;;;3.80;2.62;;;;;;;10.12;45.47;99409.38;1782512;80;20966;-66
2022/03/08 00:05:26;;;;;;;3.58;2.83;;;;;;;10.11;45.48;99407.72;1782503;80;21045;-65
2022/03/08 00:07:53;;;;;;;4.28;2.80;;;;;;;10.10;45.48;99410.06;1785491;79;20975;-65
2022/03/08 00:10:20;;;;;;;4.40;2.75;;;;;;;10.10;45.49;99408.73;1811549;77;21879;-66
2022/03/08 00:12:47;;;;;;;3.67;3.20;;;;;;;10.10;45.50;99409.20;1814484;78;21018;-66
2022/03/08 00:15:19;;;;;;;3.58;2.98;;;;;;;10.10;45.51;99406.08;1814854;78;21026;-65
2022/03/08 00:17:47;;;;;;;4.25;3.10;;;;;;;10.09;45.50;99404.92;1814637;78;20951;-66
2022/03/08 00:20:14;;;;;;;4.87;3.00;;;;;;;10.09;45.50;99400.94;1814635;79;21116;-66
2022/03/08 00:22:41;;;;;;;4.55;3.58;;;;;;;10.08;45.53;99404.58;1814769;78;21176;-66
2022/03/08 00:25:08;;;;;;;4.67;3.40;;;;;;;10.07;45.54;99395.80;1805322;78;20970;-66
2022/03/08 00:27:35;;;;;;;4.42;3.40;;;;;;;10.07;45.53;99388.34;1782439;80;21033;-65
2022/03/08 00:30:06;;;;;;;3.92;3.33;;;;;;;10.06;45.55;99389.33;1782607;80;21538;-66
2022/03/08 00:32:33;;;;;;;4.90;3.80;;;;;;;10.06;45.57;99390.66;1782831;80;21006;-65
2022/03/08 00:34:59;;;;;;;5.50;4.00;;;;;;;10.04;45.58;99390.81;1782768;79;21182;-65
2022/03/08 00:37:25;;;;;;;4.62;3.90;;;;;;;10.04;45.60;99394.80;1782492;80;20987;-67
2022/03/08 00:39:53;;;;;;;6.10;4.25;;;;;;;10.03;45.61;99395.31;1782430;80;21661;-65
2022/03/08 00:42:20;;;;;;;6.05;4.17;;;;;;;10.03;45.60;99397.14;1783774;79;21478;-65
2022/03/08 00:44:47;;;;;;;5.50;3.98;;;;;;;10.02;45.60;99395.00;1782574;80;21002;-65
2022/03/08 00:47:13;;;;;;;4.80;3.67;;;;;;;10.02;45.61;99396.80;1782915;79;21206;-65
2022/03/08 00:49:39;;;;;;;4.42;3.80;;;;;;;10.02;45.64;99396.80;1782655;80;20990;-66
2022/03/08 00:52:07;;;;;;;6.78;3.77;;;;;;;10.02;45.63;99396.33;1782487;80;21021;-66
2022/03/08 00:54:34;;;;;;;5.45;4.10;;;;;;;10.01;45.63;99396.49;1782419;80;21029;-65
2022/03/08 00:57:00;;;;;;;6.53;4.60;;;;;;;10.01;45.66;99394.66;1782610;80;21053;-65
2022/03/08 00:59:27;;;;;;;5.78;4.28;;;;;;;10.00;45.67;99394.31;1783520;79;21227;-65
2022/03/08 01:01:53;;;;;;;5.92;4.00;;;;;;;10.01;45.67;99401.80;1782767;79;21042;-66
2022/03/08 01:04:19;;;;;;;6.22;3.95;;;;;;;10.00;45.70;99397.48;1782478;80;21053;-65
2022/03/08 01:06:46;;;;;;;5.47;4.08;;;;;;;9.99;45.69;99399.31;1782486;80;21553;-65
2022/03/08 01:09:12;;;;;;;5.58;4.30;;;;;;;9.99;45.71;99396.66;1806988;77;21002;-66
2022/03/08 01:11:41;;;;;;;4.62;4.12;;;;;;;9.99;45.72;99389.20;1814708;78;21128;-66
2022/03/08 01:14:08;;;;;;;5.30;4.17;;;;;;;9.99;45.71;99383.90;1811983;78;21085;-66
2022/03/08 01:16:36;;;;;;;6.08;4.37;;;;;;;9.98;45.73;99380.39;1800737;78;21002;-66
2022/03/08 01:19:03;;;;;;;8.78;4.90;;;;;;;9.98;45.74;99382.23;1796944;79;21044;-67
2022/03/08 01:21:31;;;;;;;6.83;5.22;;;;;;;9.96;45.78;99374.44;1788318;80;21017;-65
2022/03/08 01:23:59;;;;;;;6.65;5.53;;;;;;;9.95;45.76;99367.49;1788708;80;21194;-66
2022/03/08 01:26:26;;;;;;;9.13;5.17;;;;;;;9.95;45.79;99365.34;1770967;80;21072;-65
2022/03/08 01:28:55;;;;;;;7.12;4.58;;;;;;;9.95;45.80;99371.47;1788170;79;21026;-65
2022/03/08 01:31:23;;;;;;;5.75;4.62;;;;;;;9.95;45.80;99372.80;1788568;80;21076;-66
2022/03/08 01:33:51;;;;;;;8.15;5.60;;;;;;;9.95;45.80;99371.47;1789299;78;21038;-66
2022/03/08 01:36:18;;;;;;;6.42;5.10;;;;;;;9.95;45.82;99371.98;1788677;79;21202;-65
2022/03/08 01:38:45;;;;;;;8.10;5.72;;;;;;;9.95;45.83;99369.33;1788414;80;21462;-65
2022/03/08 01:41:11;;;;;;;8.10;6.28;;;;;;;9.94;45.84;99368.98;1788679;80;21087;-65
2022/03/08 01:43:38;;;;;;;7.45;5.80;;;;;;;9.94;45.87;99371.64;1788166;80;21093;-65
2022/03/08 01:46:04;;;;;;;8.90;6.30;;;;;;;9.94;45.88;99371.64;1788697;80;20998;-67
2022/03/08 01:48:30;;;;;;;8.30;6.78;;;;;;;9.93;45.89;99364.19;1788432;79;21501;-66
2022/03/08 01:50:57;;;;;;;10.50;6.35;;;;;;;9.93;45.89;99370.81;1771759;79;20981;-66
2022/03/08 01:53:24;;;;;;;8.88;6.00;;;;;;;9.94;45.92;99370.31;1788519;80;21088;-66
2022/03/08 01:55:51;;;;;;;8.75;6.95;;;;;;;9.93;45.90;99366.84;1788425;80;20998;-66
2022/03/08 01:58:17;;;;;;;7.80;6.40;;;;;;;9.94;45.92;99367.15;1788488;80;21014;-65
2022/03/08 02:00:45;;;;;;;8.70;6.65;;;;;;;9.94;45.94;99367.66;1746088;80;21022;-65
2022/03/08 02:03:12;;;;;;;10.13;7.35;;;;;;;9.93;45.95;99365.52;1788323;79;21041;-65
2022/03/08 02:05:39;;;;;;;9.98;6.40;;;;;;;9.91;45.96;99356.90;1788208;79;21069;-65
2022/03/08 02:08:07;;;;;;;9.83;7.67;;;;;;;9.91;45.97;99363.53;1799513;78;20982;-66
2022/03/08 02:10:33;;;;;;;8.60;6.90;;;;;;;9.92;45.96;99363.84;1820712;77;21038;-66
2022/03/08 02:13:00;;;;;;;9.18;6.97;;;;;;;9.92;45.97;99362.52;1820526;78;21282;-65
2022/03/08 02:15:28;;;;;;;9.43;7.12;;;;;;;9.91;45.97;99363.53;1820683;78;20969;-65
2022/03/08 02:17:56;;;;;;;7.85;6.00;;;;;;;9.92;45.99;99366.50;1820452;78;21017;-65
2022/03/08 02:20:23;;;;;;;9.35;7.42;;;;;;;9.91;46.00;99377.28;1820346;77;20986;-64
2022/03/08 02:22:51;;;;;;;11.88;7.45;;;;;;;9.91;46.00;99373.30;1820547;78;21560;-66
2022/03/08 02:25:19;;;;;;;11.30;7.62;;;;;;;9.91;46.04;99369.31;1796054;78;21821;-66
2022/03/08 02:27:48;;;;;;;10.63;7.58;;;;;;;9.91;46.01;99377.28;1788138;79;21534;-66
2022/03/08 02:30:16;;;;;;;9.55;7.30;;;;;;;9.89;46.05;99376.15;1788541;79;21529;-65
2022/03/08 02:32:44;;;;;;;7.50;6.05;;;;;;;9.89;46.06;99374.82;1788261;80;20991;-65
2022/03/08 02:35:14;;;;;;;10.55;7.78;;;;;;;9.90;46.05;99375.13;1788262;80;20986;-65
2022/03/08 02:37:50;;;;;;;10.88;7.67;;;;;;;9.89;46.06;99374.82;1788566;80;21092;-65
2022/03/08 02:40:18;;;;;;;9.00;7.25;;;;;;;9.90;46.07;99383.09;1788282;79;21580;-65
2022/03/08 02:42:45;;;;;;;9.65;7.05;;;;;;;9.90;46.09;99380.95;1789580;78;20998;-65
2022/03/08 02:45:12;;;;;;;8.95;7.40;;;;;;;9.88;46.09;99374.48;1788276;80;21076;-65
2022/03/08 02:47:38;;;;;;;10.18;7.10;;;;;;;9.88;46.10;99373.16;1788269;80;21061;-66
2022/03/08 02:50:07;;;;;;;10.30;7.20;;;;;;;9.88;46.14;99368.36;1788475;80;21233;-65
2022/03/08 02:52:35;;;;;;;9.68;7.53;;;;;;;9.88;46.13;99369.17;1788787;80;21060;-65
2022/03/08 02:55:02;;;;;;;9.73;7.33;;;;;;;9.88;46.16;99371.01;1788382;79;21505;-66
2022/03/08 02:57:29;;;;;;;11.28;7.50;;;;;;;9.88;46.15;99370.50;1789307;78;20990;-66
2022/03/08 02:59:55;;;;;;;9.90;6.97;;;;;;;9.87;46.16;99374.17;1788276;79;21057;-66
2022/03/08 03:02:22;;;;;;;10.53;7.22;;;;;;;9.87;46.17;99370.66;1788623;79;21861;-65
2022/03/08 03:04:48;;;;;;;10.65;7.85;;;;;;;9.88;46.20;99374.98;1788418;79;21030;-66
2022/03/08 03:07:15;;;;;;;11.15;7.58;;;;;;;9.87;46.18;99369.34;1800163;77;21045;-65
2022/03/08 03:09:42;;;;;;;11.00;6.97;;;;;;;9.87;46.18;99366.69;1820813;77;21006;-65
2022/03/08 03:12:10;;;;;;;9.15;7.42;;;;;;;9.86;46.19;99364.54;1820755;78;21060;-65
2022/03/08 03:14:37;;;;;;;8.80;6.95;;;;;;;9.87;46.21;99366.69;1819666;77;21230;-65
2022/03/08 03:17:04;;;;;;;9.55;7.55;;;;;;;9.87;46.22;99366.69;1817878;77;21023;-66
2022/03/08 03:19:31;;;;;;;8.28;6.60;;;;;;;9.86;46.23;99367.19;1814740;78;20987;-65
2022/03/08 03:21:59;;;;;;;8.58;7.05;;;;;;;9.87;46.23;99368.86;1814802;78;20975;-66
2022/03/08 03:24:26;;;;;;;9.38;6.95;;;;;;;9.87;46.24;99366.69;1813966;79;21226;-64
2022/03/08 03:26:52;;;;;;;10.23;7.55;;;;;;;9.86;46.25;99367.19;1808337;78;21159;-66
2022/03/08 03:29:18;;;;;;;9.28;6.75;;;;;;;9.86;46.25;99367.19;1814843;79;20994;-65
2022/03/08 03:31:45;;;;;;;8.98;7.00;;;;;;;9.86;46.25;99364.54;1809862;79;20982;-65
2022/03/08 03:34:11;;;;;;;9.28;7.12;;;;;;;9.86;46.27;99367.70;1782598;80;21086;-65
2022/03/08 03:36:38;;;;;;;9.28;6.67;;;;;;;9.86;46.30;99365.05;1782563;80;21020;-65
2022/03/08 03:39:05;;;;;;;10.13;7.78;;;;;;;9.87;46.30;99372.84;1782599;79;21218;-65
2022/03/08 03:41:32;;;;;;;8.03;6.60;;;;;;;9.84;46.31;99371.34;1782534;80;21029;-66
2022/03/08 03:43:58;;;;;;;7.65;6.17;;;;;;;9.85;46.31;99369.53;1782643;80;21552;-66
2022/03/08 03:46:24;;;;;;;9.85;6.78;;;;;;;9.85;46.32;99380.15;1782610;80;21026;-65
2022/03/08 03:48:51;;;;;;;8.98;6.53;;;;;;;9.85;46.33;99377.50;1783710;79;21474;-65
2022/03/08 03:51:18;;;;;;;9.48;7.00;;;;;;;9.85;46.33;99378.82;1782585;80;21244;-66
2022/03/08 03:53:45;;;;;;;9.18;6.47;;;;;;;9.85;46.34;99380.15;1782577;80;21041;-65
2022/03/08 03:56:11;;;;;;;9.25;6.90;;;;;;;9.84;46.34;99375.32;1782584;80;21042;-65
2022/03/08 03:58:38;;;;;;;8.40;6.22;;;;;;;9.84;46.37;99371.84;1782663;80;21026;-65
2022/03/08 04:01:04;;;;;;;8.38;5.97;;;;;;;9.85;46.34;99370.86;1782626;80;20997;-65
2022/03/08 04:03:31;;;;;;;9.00;6.65;;;;;;;9.84;46.38;99369.19;1782850;80;21214;-66
2022/03/08 04:05:58;;;;;;;5.90;5.12;;;;;;;9.85;46.39;99370.86;1783892;79;21006;-66
2022/03/08 04:08:24;;;;;;;8.53;6.30;;;;;;;9.85;46.39;99369.53;1809518;79;21018;-65
2022/03/08 04:10:51;;;;;;;7.47;5.47;;;;;;;9.83;46.40;99367.05;1814971;78;20987;-65
2022/03/08 04:13:18;;;;;;;7.85;5.85;;;;;;;9.84;46.40;99370.52;1814871;78;21522;-66
2022/03/08 04:15:45;;;;;;;8.90;6.53;;;;;;;9.83;46.41;99363.07;1814667;79;21562;-65
2022/03/08 04:18:12;;;;;;;8.60;5.65;;;;;;;9.84;46.41;99371.84;1823872;78;21435;-66
2022/03/08 04:20:39;;;;;;;7.65;5.62;;;;;;;9.84;46.41;99371.84;1826138;78;21045;-65
2022/03/08 04:23:05;;;;;;;8.43;6.08;;;;;;;9.84;46.45;99370.52;1817289;78;20970;-65
2022/03/08 04:25:32;;;;;;;7.15;5.78;;;;;;;9.84;46.43;99374.50;1793738;79;21076;-65
2022/03/08 04:27:58;;;;;;;6.97;5.20;;;;;;;9.84;46.45;99371.84;1793704;79;21207;-66
2022/03/08 04:30:26;;;;;;;7.00;5.78;;;;;;;9.84;46.45;99374.50;1806182;78;21005;-65
2022/03/08 04:32:54;;;;;;;6.75;5.42;;;;;;;9.85;46.45;99380.15;1826260;78;21032;-66
2022/03/08 04:35:20;;;;;;;7.00;5.50;;;;;;;9.84;46.45;99380.62;1826171;78;21072;-65
2022/03/08 04:37:49;;;;;;;7.53;5.45;;;;;;;9.83;46.47;99385.63;1825589;78;20981;-65
2022/03/08 04:40:15;;;;;;;7.75;5.60;;;;;;;9.84;46.46;99379.81;1815398;78;21200;-64
2022/03/08 04:42:42;;;;;;;7.92;5.55;;;;;;;9.82;46.46;99382.63;1793607;79;21061;-66
2022/03/08 04:45:11;;;;;;;6.47;4.47;;;;;;;9.84;46.46;99385.11;1793635;80;21469;-66
2022/03/08 04:47:38;;;;;;;7.92;6.35;;;;;;;9.83;46.48;99382.97;1793889;79;20994;-66
2022/03/08 04:50:10;;;;;;;6.33;5.20;;;;;;;9.83;46.48;99389.60;1793761;80;21069;-65
2022/03/08 04:52:38;;;;;;;6.33;4.95;;;;;;;9.83;46.49;99390.08;1793590;79;21889;-65
2022/03/08 04:55:05;;;;;;;6.20;5.28;;;;;;;9.83;46.48;99384.30;1793852;80;21017;-66
2022/03/08 04:57:33;;;;;;;6.45;4.83;;;;;;;9.83;46.50;99386.09;1794718;78;20989;-66
2022/03/08 05:00:00;;;;;;;7.42;5.58;;;;;;;9.83;46.50;99391.41;1793759;79;21025;-66
2022/03/08 05:02:26;;;;;;;6.95;5.05;;;;;;;9.83;46.51;99395.38;1793975;79;21643;-66
2022/03/08 05:04:53;;;;;;;7.45;5.47;;;;;;;9.83;46.54;99390.08;1793861;79;21740;-65
2022/03/08 05:07:20;;;;;;;6.42;4.80;;;;;;;9.83;46.56;99393.58;1820108;77;21034;-66
2022/03/08 05:09:47;;;;;;;7.17;4.97;;;;;;;9.83;46.55;99401.54;1826165;78;21449;-66
2022/03/08 05:12:13;;;;;;;6.40;4.53;;;;;;;9.84;46.56;99405.01;1826083;78;21540;-66
2022/03/08 05:14:41;;;;;;;6.92;5.92;;;;;;;9.83;46.56;99409.50;1825348;78;21025;-66
2022/03/08 05:17:09;;;;;;;6.45;4.37;;;;;;;9.83;46.56;99399.36;1822636;78;21243;-66
2022/03/08 05:19:35;;;;;;;5.65;4.45;;;;;;;9.84;46.58;99403.69;1824268;78;20974;-65
2022/03/08 05:22:04;;;;;;;6.30;4.85;;;;;;;9.83;46.58;99396.23;1826060;78;20970;-66
2022/03/08 05:24:30;;;;;;;5.35;4.47;;;;;;;9.84;46.60;99386.44;1826451;78;20998;-66
2022/03/08 05:26:57;;;;;;;6.78;4.25;;;;;;;9.84;46.60;99387.77;1826165;78;21057;-65
2022/03/08 05:29:23;;;;;;;6.53;4.30;;;;;;;9.84;46.60;99397.88;1826151;78;21262;-66
2022/03/08 05:31:50;;;;;;;6.20;4.70;;;;;;;9.86;46.62;99403.52;1824842;78;21005;-65
2022/03/08 05:34:16;;;;;;;6.60;4.90;;;;;;;9.86;46.62;99399.54;1826149;78;21562;-66
2022/03/08 05:36:43;;;;;;;5.12;4.33;;;;;;;9.87;46.65;99403.35;1825860;78;21532;-66
2022/03/08 05:39:10;;;;;;;5.83;4.75;;;;;;;9.87;46.63;99402.50;1793650;80;21021;-66
2022/03/08 05:41:37;;;;;;;5.10;4.00;;;;;;;9.87;46.65;99399.37;1793453;80;21138;-66
2022/03/08 05:44:04;;;;;;;5.97;4.12;;;;;;;9.88;46.65;99402.84;1793522;80;20997;-66
2022/03/08 05:46:31;;;;;;;7.22;4.45;;;;;;;9.88;46.65;99404.99;1793819;80;21065;-66
2022/03/08 05:48:57;;;;;;;5.65;4.37;;;;;;;9.88;46.66;99400.19;1794641;78;21060;-66
2022/03/08 05:51:23;;;;;;;4.80;3.50;;;;;;;9.89;46.66;99404.48;1793643;79;21015;-65
2022/03/08 05:53:51;;;;;;;8.20;4.65;;;;;;;9.89;46.67;99400.03;1793534;79;20978;-65
2022/03/08 05:56:18;;;;;;;6.22;4.45;;;;;;;9.89;46.67;99399.17;1793512;80;21670;-66
2022/03/08 05:58:44;;;;;;;5.58;4.08;;;;;;;9.90;46.70;99401.66;1793562;79;21580;-65
2022/03/08 06:01:11;;;;;;;4.92;3.98;;;;;;;9.90;46.67;99401.66;1793552;80;21512;-66
2022/03/08 06:03:38;;;;;;;5.12;3.67;;;;;;;9.90;46.69;99404.32;1793556;79;21021;-65
2022/03/08 06:06:05;;;;;;;4.45;3.80;;;;;;;9.91;46.70;99411.30;1804159;77;21152;-65
2022/03/08 06:08:32;;;;;;;6.65;4.35;;;;;;;9.91;46.71;99409.97;1826182;78;20989;-66
2022/03/08 06:10:59;;;;;;;3.83;3.42;;;;;;;9.92;46.70;99403.64;1826030;78;21057;-66
2022/03/08 06:13:25;;;;;;;5.15;4.05;;;;;;;9.93;46.71;99404.47;1826010;78;21037;-65
2022/03/08 06:15:52;;;;;;;6.00;4.35;;;;;;;9.93;46.71;99403.14;1826243;78;21017;-65
2022/03/08 06:18:18;;;;;;;6.35;4.17;;;;;;;9.91;46.73;99405.98;1823994;78;21075;-65
2022/03/08 06:20:45;;;;;;;5.10;3.50;;;;;;;9.93;46.73;99407.97;1814797;78;20982;-66
2022/03/08 06:23:12;;;;;;;4.97;3.58;;;;;;;9.94;46.74;99407.46;1813614;79;21033;-66
2022/03/08 06:25:38;;;;;;;4.00;3.33;;;;;;;9.94;46.75;99408.28;1814515;79;20990;-66
2022/03/08 06:28:05;;;;;;;4.95;4.12;;;;;;;9.94;46.76;99406.95;1814552;78;21057;-65
2022/03/08 06:30:33;;;;;;;4.30;3.77;;;;;;;9.95;46.75;99407.80;1814928;78;21205;-66
2022/03/08 06:32:59;;;;;;;4.22;3.80;;;;;;;9.96;46.77;99408.94;1814552;79;20991;-65
2022/03/08 06:35:26;;;;;;;5.40;3.55;;;;;;;9.98;46.76;99423.36;1814567;79;20991;-66
2022/03/08 06:37:52;;;;;;;3.98;3.20;;;;;;;9.98;46.76;99429.48;1814983;79;21010;-66
2022/03/08 06:40:18;;;;;;;3.98;3.40;;;;;;;9.98;46.80;99425.50;1813003;79;21518;-66
2022/03/08 06:42:46;;;;;;;4.75;3.50;;;;;;;10.00;46.79;99428.00;1807964;79;21129;-65
2022/03/08 06:45:12;;;;;;;5.20;3.35;;;;;;;10.00;46.80;99428.00;1814785;78;20994;-68
2022/03/08 06:47:39;;;;;;;4.03;3.52;;;;;;;10.00;46.81;99423.51;1814723;78;21022;-65
2022/03/08 06:50:06;;;;;;;4.35;3.62;;;;;;;10.01;46.81;99426.50;1814760;78;20962;-66
2022/03/08 06:52:33;;;;;;;5.42;4.05;;;;;;;10.02;46.80;99428.65;1814978;79;21521;-66
2022/03/08 06:55:00;;;;;;;4.33;3.92;;;;;;;10.02;46.80;99425.99;1814645;79;21266;-66
2022/03/08 06:57:26;;;;;;;4.67;3.42;;;;;;;10.02;46.80;99426.84;1787453;79;21002;-66
2022/03/08 06:59:52;;;;;;;4.28;3.50;;;;;;;10.02;46.80;99421.54;1782750;80;21009;-66
2022/03/08 07:02:20;;;;;;;3.95;3.10;;;;;;;10.03;46.82;99429.81;1782681;79;21001;-65
2022/03/08 07:04:47;;;;;;;3.70;3.17;;;;;;;10.03;46.80;99423.17;1788011;79;21049;-66
2022/03/08 07:07:13;;;;;;;4.20;3.37;;;;;;;10.04;46.83;99421.34;1814729;79;21247;-65
2022/03/08 07:09:40;;;;;;;5.08;3.37;;;;;;;10.04;46.83;99423.52;1814562;79;21545;-65
2022/03/08 07:12:08;;;;;;;4.12;3.33;;;;;;;10.06;46.85;99423.83;1814640;79;21533;-66
2022/03/08 07:14:37;;;;;;;4.95;3.37;;;;;;;10.07;46.84;99418.86;1813468;78;21574;-66
2022/03/08 07:17:04;;;;;;;3.70;3.05;;;;;;;10.07;46.85;99419.68;1814754;79;21584;-65
2022/03/08 07:19:30;;;;;;;4.40;3.10;;;;;;;10.09;46.88;99426.97;1818424;78;21192;-65
2022/03/08 07:21:57;;;;;;;4.25;3.45;;;;;;;10.11;46.88;99420.17;1826102;78;20986;-65
2022/03/08 07:24:25;;;;;;;4.42;3.33;;;;;;;10.11;46.89;99420.98;1826182;78;20982;-66
2022/03/08 07:26:52;;;;;;;3.42;3.00;;;;;;;10.14;46.91;99421.13;1826283;78;21509;-66
2022/03/08 07:29:18;;;;;;;4.75;3.25;;;;;;;10.15;46.92;99423.62;1826296;78;21030;-67
2022/03/08 07:31:48;;;;;;;3.00;2.70;;;;;;;10.18;46.91;99419.30;1825189;78;21029;-66
2022/03/08 07:34:15;;;;;;;3.92;3.00;;;;;;;10.20;46.92;99419.14;1826047;78;21474;-67
2022/03/08 07:36:44;;;;;;;3.65;3.22;;;;;;;10.23;46.93;99419.59;1826105;78;20978;-65
2022/03/08 07:39:11;;;;;;;3.52;2.90;;;;;;;10.26;46.94;99417.58;1826246;78;21501;-66
2022/03/08 07:41:38;;;;;;;4.22;2.92;;;;;;;10.29;46.93;99417.25;1826210;78;21037;-66
2022/03/08 07:44:05;;;;;;;3.62;3.10;;;;;;;10.33;46.93;99414.60;1826291;78;21305;-66
2022/03/08 07:46:32;;;;;;;3.83;2.67;;;;;;;10.35;46.94;99416.10;1825091;77;21050;-66
2022/03/08 07:48:58;;;;;;;3.60;2.77;;;;;;;10.38;46.92;99415.73;1813086;78;21067;-65
2022/03/08 07:51:25;;;;;;;3.10;2.77;;;;;;;10.41;46.91;99413.22;1826532;78;21012;-66
2022/03/08 07:53:56;;;;;;;3.02;2.72;;;;;;;10.43;46.91;99409.41;1826229;78;21063;-66
2022/03/08 07:56:22;;;;;;;2.30;2.10;;;;;;;10.48;46.90;99413.36;1826098;78;21128;-66
2022/03/08 07:58:49;;;;;;;3.72;2.77;;;;;;;10.51;46.85;99406.38;1826471;78;21008;-66
2022/03/08 08:01:17;;;;;;;3.00;2.30;;;;;;;10.55;46.88;99407.69;1826233;78;21040;-66
2022/03/08 08:03:43;;;;;;;3.33;2.58;;;;;;;10.58;46.85;99406.80;1821934;78;21009;-66
2022/03/08 08:06:10;;;;;;;3.00;2.25;;;;;;;10.63;46.86;99404.45;1818006;78;20996;-66
2022/03/08 08:08:37;;;;;;;2.70;2.40;;;;;;;10.67;46.85;99404.11;1826104;78;21080;-66
2022/03/08 08:11:06;;;;;;;3.10;2.65;;;;;;;10.72;46.83;99411.03;1826171;78;20969;-67
2022/03/08 08:13:35;;;;;;;2.85;2.33;;;;;;;10.76;46.80;99403.06;1826151;78;21074;-65
2022/03/08 08:16:02;;;;;;;3.30;2.83;;;;;;;10.80;46.83;99408.34;1826187;78;21036;-65
2022/03/08 08:18:29;;;;;;;2.80;2.33;;;;;;;10.82;46.82;99411.12;1826216;78;21540;-66
2022/03/08 08:20:55;;;;;;;2.47;2.20;;;;;;;10.86;46.82;99412.12;1804230;78;21142;-65
2022/03/08 08:23:23;;;;;;;2.90;2.40;;;;;;;10.90;46.81;99416.06;1782573;79;21014;-66
2022/03/08 08:25:50;;;;;;;4.10;2.90;;;;;;;10.93;46.80;99424.99;1771922;80;21356;-66
2022/03/08 08:28:17;;;;;;;3.08;2.12;;;;;;;10.95;46.77;99413.20;1782539;80;21021;-65
2022/03/08 08:30:49;;;;;;;2.85;2.42;;;;;;;10.98;46.75;99412.01;1782567;79;21030;-66
2022/03/08 08:33:16;;;;;;;3.30;2.12;;;;;;;11.02;46.82;99422.60;1782225;79;21246;-66
2022/03/08 08:35:43;;;;;;;2.83;2.45;;;;;;;11.04;46.80;99416.61;1782429;80;21034;-65
2022/03/08 08:38:10;;;;;;;3.00;2.65;;;;;;;11.08;46.80;99415.23;1783777;79;21431;-66
2022/03/08 08:40:37;;;;;;;3.05;2.12;;;;;;;11.10;46.77;99410.56;1782483;79;21435;-67
2022/03/08 08:43:19;;;;;;;;;;;;;;;;;;;;;
2022/03/08 08:45:35;;;;;;;2.47;2.20;;;;;;;11.14;46.75;99418.50;1779371;79;21119;-65
2022/03/08 08:48:05;;;;;;;2.75;2.45;;;;;;;11.16;46.70;99427.16;1786653;79;21017;-66
2022/03/08 08:50:32;;;;;;;2.30;2.00;;;;;;;11.17;46.69;99422.66;1814813;79;21042;-67
2022/03/08 08:53:01;;;;;;;3.52;2.40;;;;;;;11.18;46.68;99427.80;1807513;79;20990;-67
2022/03/08 08:55:28;;;;;;;2.50;2.05;;;;;;;11.19;46.65;99429.44;1783722;79;21010;-66
2022/03/08 08:57:55;;;;;;;2.42;1.85;;;;;;;11.20;46.63;99427.11;1782577;79;21233;-66
2022/03/08 09:00:23;;;;;;;2.77;2.05;;;;;;;11.21;46.61;99432.73;1782496;80;21056;-66
2022/03/08 09:02:52;;;;;;;2.25;1.98;;;;;;;11.23;46.59;99425.09;1782591;80;21073;-66
2022/03/08 09:05:18;;;;;;;2.65;2.20;;;;;;;11.24;46.57;99429.39;1808561;79;21010;-66
2022/03/08 09:07:46;;;;;;;2.02;1.82;;;;;;;11.25;46.59;99422.57;1814633;79;21041;-66
2022/03/08 09:10:13;;;;;;;3.20;2.17;;;;;;;11.27;46.58;99425.06;1814659;79;21827;-66
2022/03/08 09:12:41;;;;;;;3.05;2.25;;;;;;;11.28;46.57;99424.03;1813221;79;21061;-65
2022/03/08 09:15:08;;;;;;;2.62;2.05;;;;;;;11.29;46.57;99425.70;1814622;79;21010;-66
2022/03/08 09:17:39;;;;;;;2.25;1.98;;;;;;;11.31;46.56;99426.34;1814588;79;21013;-66
2022/03/08 09:20:09;;;;;;;3.37;2.10;;;;;;;11.33;46.57;99429.65;1814742;78;21057;-65
2022/03/08 09:22:37;;;;;;;2.72;2.17;;;;;;;11.34;46.57;99424.67;1814575;79;21820;-66
2022/03/08 09:25:05;;;;;;;2.17;1.75;;;;;;;11.38;46.56;99427.28;1814575;79;20987;-66
2022/03/08 09:27:34;;;;;;;1.95;1.75;;;;;;;11.40;46.54;99428.75;1814578;79;21065;-66
2022/03/08 09:30:06;;;;;;;2.30;2.10;;;;;;;11.43;46.65;99422.23;1813468;79;21010;-66
2022/03/08 09:32:33;;;;;;;2.50;2.30;;;;;;;11.48;46.78;99419.05;1813771;78;21082;-66
2022/03/08 09:35:00;;;;;;;2.65;1.80;;;;;;;11.53;46.80;99424.63;1814610;79;21196;-66
2022/03/08 09:37:27;;;;;;;1.98;1.77;;;;;;;11.59;46.80;99432.72;1814583;79;20998;-66
2022/03/08 09:39:54;;;;;;;1.77;1.67;;;;;;;11.64;46.86;99429.50;1814525;79;21462;-66
2022/03/08 09:42:21;;;;;;;2.40;1.72;;;;;;;11.70;46.87;99422.63;1814733;79;21010;-66
2022/03/08 09:44:49;;;;;;;1.98;1.60;;;;;;;11.77;46.92;99428.36;1814605;79;20986;-66
2022/03/08 09:47:17;;;;;;;2.42;2.00;;;;;;;11.84;46.88;99429.80;1813374;79;21196;-65
2022/03/08 09:49:44;;;;;;;2.05;1.85;;;;;;;11.93;47.00;99427.38;1814404;77;21057;-66
2022/03/08 09:52:11;;;;;;;1.92;1.70;;;;;;;12.02;47.09;99427.30;1814632;79;21514;-67
2022/03/08 09:54:37;;;;;;;2.40;1.90;;;;;;;12.10;47.00;99429.34;1814799;79;20971;-66
2022/03/08 09:57:11;;;;;;;1.75;1.65;;;;;;;12.20;46.94;99434.38;1812016;79;21060;-66
2022/03/08 09:59:40;;;;;;;1.98;1.55;;;;;;;12.26;46.79;99426.97;1808583;78;21102;-65
2022/03/08 10:02:07;;;;;;;2.00;1.80;;;;;;;12.35;46.75;99429.03;1802824;79;20990;-66
2022/03/08 10:04:34;;;;;;;2.15;1.65;;;;;;;12.42;46.98;99429.94;1785324;79;21473;-67
2022/03/08 10:07:10;;;;;;;1.72;1.45;;;;;;;12.51;47.26;99433.30;1782474;80;20998;-65
2022/03/08 10:09:38;;;;;;;2.27;1.77;;;;;;;12.60;47.44;99424.18;1782300;80;20993;-67
2022/03/08 10:12:16;;;;;;;2.40;1.80;;;;;;;12.67;47.45;99421.09;1782464;80;21143;-66
2022/03/08 10:14:44;;;;;;;1.72;1.55;;;;;;;12.75;47.56;99416.95;1781240;79;21078;-65
2022/03/08 10:17:32;;;;;;;1.80;1.55;;;;;;;12.84;47.65;99419.48;1771704;80;21049;-66
2022/03/08 10:20:01;;;;;;;1.70;1.60;;;;;;;12.93;47.83;99415.69;1774758;79;21265;-66
2022/03/08 10:22:32;;;;;;;1.50;1.40;;;;;;;13.01;47.88;99412.06;1772014;80;21084;-66
2022/03/08 10:25:19;;;;;;;2.22;1.77;;;;;;;13.09;47.75;99415.41;1782378;80;21211;-66
2022/03/08 10:27:58;;;;;;;1.65;1.52;;;;;;;13.18;47.75;99415.59;1782117;79;21656;-66
2022/03/08 10:32:18;;;;;;;1.65;1.50;;;;;;;13.39;48.04;99419.27;1870373;76;28102;-67
2022/03/08 10:34:51;;;;;;;1.60;1.50;;;;;;;13.45;47.93;99412.34;1826572;78;21056;-67
2022/03/08 10:37:20;;;;;;;1.35;1.25;;;;;;;13.55;47.81;99410.95;1815063;78;21024;-66
2022/03/08 10:39:54;;;;;;;2.12;1.55;;;;;;;13.66;47.71;99418.94;1794179;79;20953;-67
2022/03/08 10:42:24;;;;;;;2.30;1.40;;;;;;;13.76;47.58;99410.05;1794364;80;26534;-66
2022/03/08 10:44:53;;;;;;;1.60;1.50;;;;;;;13.84;47.33;99410.92;1794239;79;20941;-67
2022/03/08 10:47:20;;;;;;;1.67;1.57;;;;;;;13.94;47.18;99404.19;1774454;80;21053;-67
2022/03/08 10:49:54;;;;;;;1.80;1.70;;;;;;;14.04;47.15;99409.67;1821725;77;21200;-68
2022/03/08 10:52:36;;;;;;;2.05;1.72;;;;;;;14.12;47.09;99410.34;1826713;78;20979;-66
2022/03/08 10:55:20;;;;;;;1.98;1.57;;;;;;;14.24;47.03;99410.59;1825823;78;20933;-67
2022/03/08 10:58:00;;;;;;;1.60;1.40;;;;;;;14.35;46.89;99410.02;1826653;78;21072;-66
2022/03/08 11:00:32;;;;;;;1.57;1.47;;;;;;;14.45;46.79;99412.31;1826655;78;21068;-66
2022/03/08 11:03:03;;;;;;;1.67;1.50;;;;;;;14.56;46.66;99402.86;1821749;78;21151;-66
2022/03/08 11:05:32;;;;;;;1.60;1.50;;;;;;;14.65;46.61;99405.70;1824437;78;21536;-67
2022/03/08 11:08:00;;;;;;;1.42;1.32;;;;;;;14.74;46.57;99404.48;1826931;78;21534;-67
2022/03/08 11:10:30;;;;;;;1.60;1.37;;;;;;;14.86;46.47;99414.59;1825845;78;21036;-67
2022/03/08 11:12:58;;;;;;;2.22;1.57;;;;;;;14.96;46.40;99414.18;1793927;80;21072;-67
2022/03/08 11:15:28;;;;;;;1.30;1.20;;;;;;;15.06;46.33;99422.09;1794070;80;21870;-67
2022/03/08 11:17:57;;;;;;;1.50;1.40;;;;;;;15.16;46.25;99426.22;1793956;80;21061;-67
2022/03/08 11:20:27;;;;;;;1.35;1.25;;;;;;;15.26;46.17;99419.44;1794038;80;21026;-67
2022/03/08 11:22:57;;;;;;;1.30;1.20;;;;;;;15.36;46.13;99424.38;1794133;80;21037;-67
2022/03/08 11:25:30;;;;;;;1.40;1.30;;;;;;;15.47;46.04;99425.58;1794368;80;20993;-68
2022/03/08 11:27:58;;;;;;;1.42;1.32;;;;;;;15.58;46.02;99428.97;1794389;78;21219;-67
2022/03/08 11:30:28;;;;;;;1.40;1.30;;;;;;;15.67;45.92;99437.09;1793932;78;21073;-67
2022/03/08 11:33:17;;;;;;;1.55;1.45;;;;;;;15.75;45.82;99432.59;1794272;80;21533;-67
2022/03/08 11:36:23;;;;;;;1.52;1.27;;;;;;;15.80;45.70;99432.77;1794259;80;21509;-66
2022/03/08 11:39:18;;;;;;;1.50;1.12;;;;;;;15.88;45.63;99437.39;1794583;80;21030;-67
2022/03/08 11:41:52;;;;;;;1.30;1.20;;;;;;;15.96;45.63;99436.34;1794229;80;21140;-67
2022/03/08 11:44:34;;;;;;;1.40;1.30;;;;;;;16.03;45.48;99433.63;1793465;79;21013;-67